Time;durP1;ratioP1;P1;durP2;ratioP2;P2;SDS_P1;SDS_P2;PMS_P1;PMS_P2;Temp;Humidity;BMP_temperature;BMP_pressure;BME280_temperature;BME280_humidity;BME280_pressure;Samples;Min_cycle;Max_cycle;Signal;HPM_P1;HPM_P2
2021/01/26 00:00:51;;;;;;;34.33;16.10;;;3.30;99.90;;;;;;3619506;39;20279;-74
2021/01/26 00:03:18;;;;;;;25.88;13.32;;;3.40;99.90;;;;;;3622261;39;20406;-74
2021/01/26 00:05:45;;;;;;;22.65;14.10;;;3.40;99.90;;;;;;3621481;39;20255;-74
2021/01/26 00:08:11;;;;;;;24.33;13.52;;;3.50;99.90;;;;;;3619942;39;20281;-74
2021/01/26 00:10:38;;;;;;;27.92;14.40;;;3.50;99.90;;;;;;3626120;39;20275;-74
2021/01/26 00:13:07;;;;;;;22.90;13.82;;;3.60;99.90;;;;;;3621562;39;20312;-74
2021/01/26 00:15:34;;;;;;;20.35;13.32;;;3.60;99.90;;;;;;3624701;39;20376;-74
2021/01/26 00:18:01;;;;;;;35.60;14.55;;;3.60;99.90;;;;;;3625220;39;20279;-74
2021/01/26 00:20:28;;;;;;;27.25;15.65;;;3.60;99.90;;;;;;3621873;39;20845;-74
2021/01/26 00:22:55;;;;;;;31.77;15.98;;;3.50;99.90;;;;;;3621532;39;20751;-74
2021/01/26 00:25:23;;;;;;;35.47;15.40;;;3.50;99.90;;;;;;3625798;39;20263;-74
2021/01/26 00:27:50;;;;;;;25.73;13.85;;;3.50;99.90;;;;;;3627744;39;20265;-74
2021/01/26 00:30:19;;;;;;;36.38;15.20;;;3.50;99.90;;;;;;3622034;39;20344;-74
2021/01/26 00:32:46;;;;;;;24.60;13.93;;;3.50;99.90;;;;;;3624802;39;20279;-74
2021/01/26 00:35:19;;;;;;;30.23;14.80;;;3.40;99.90;;;;;;3623076;39;20269;-74
2021/01/26 00:37:46;;;;;;;28.33;13.60;;;3.50;99.90;;;;;;3621697;39;20255;-74
2021/01/26 00:40:14;;;;;;;31.90;16.17;;;3.50;99.90;;;;;;3622996;39;20239;-74
2021/01/26 00:42:40;;;;;;;27.38;15.57;;;3.50;99.90;;;;;;3624274;39;20255;-74
2021/01/26 00:45:09;;;;;;;38.00;16.13;;;3.60;99.90;;;;;;3624326;39;20354;-74
2021/01/26 00:47:36;;;;;;;29.08;16.50;;;3.50;99.90;;;;;;3624579;39;20258;-75
2021/01/26 00:50:03;;;;;;;30.27;15.85;;;3.60;99.90;;;;;;3624322;39;20418;-74
2021/01/26 00:52:31;;;;;;;33.45;17.15;;;3.60;99.90;;;;;;3621759;39;20281;-75
2021/01/26 00:54:57;;;;;;;33.15;14.93;;;3.60;99.90;;;;;;3621737;39;20263;-75
2021/01/26 00:57:24;;;;;;;27.70;13.95;;;3.60;99.90;;;;;;3621239;39;20267;-75
2021/01/26 00:59:51;;;;;;;28.60;14.68;;;3.50;99.90;;;;;;3621457;39;20251;-75
2021/01/26 01:02:18;;;;;;;28.90;14.93;;;3.50;99.90;;;;;;3627758;39;22552;-76
2021/01/26 01:04:46;;;;;;;29.65;14.82;;;3.60;99.90;;;;;;3622933;39;20255;-75
2021/01/26 01:07:13;;;;;;;49.60;16.90;;;3.50;99.90;;;;;;3621213;39;20286;-75
2021/01/26 01:09:41;;;;;;;32.08;14.60;;;3.60;99.90;;;;;;3623211;39;20267;-74
2021/01/26 01:12:08;;;;;;;32.15;15.90;;;3.70;99.90;;;;;;3623867;39;20243;-74
2021/01/26 01:14:34;;;;;;;33.88;15.73;;;3.70;99.90;;;;;;3621813;39;20251;-74
2021/01/26 01:17:01;;;;;;;43.08;18.27;;;3.70;99.90;;;;;;3624371;39;20255;-74
2021/01/26 01:19:28;;;;;;;34.47;16.95;;;3.60;99.90;;;;;;3620972;39;20244;-74
2021/01/26 01:21:54;;;;;;;41.10;18.10;;;3.70;99.90;;;;;;3621442;39;20277;-74
2021/01/26 01:24:21;;;;;;;32.20;16.08;;;3.70;99.90;;;;;;3620990;39;20375;-74
2021/01/26 01:26:49;;;;;;;32.85;15.70;;;3.70;99.90;;;;;;3620575;39;20275;-74
2021/01/26 01:29:16;;;;;;;31.23;14.75;;;3.70;99.90;;;;;;3623143;39;20263;-74
2021/01/26 01:31:42;;;;;;;31.10;15.35;;;3.70;99.90;;;;;;3623675;32;20358;-74
2021/01/26 01:34:09;;;;;;;27.50;13.75;;;3.70;99.90;;;;;;3622969;39;20243;-75
2021/01/26 01:36:36;;;;;;;28.48;13.80;;;3.60;99.90;;;;;;3629613;39;20393;-75
2021/01/26 01:39:03;;;;;;;35.05;13.32;;;3.60;99.90;;;;;;3621983;39;20259;-75
2021/01/26 01:41:30;;;;;;;19.92;11.65;;;3.60;99.90;;;;;;3624094;39;20255;-75
2021/01/26 01:43:58;;;;;;;24.10;12.00;;;3.70;99.90;;;;;;3621110;39;20289;-75
2021/01/26 01:46:26;;;;;;;28.38;12.98;;;3.70;99.90;;;;;;3623398;39;20277;-75
2021/01/26 01:48:57;;;;;;;27.15;12.40;;;3.70;99.90;;;;;;3623336;39;20248;-74
2021/01/26 01:51:26;;;;;;;29.35;12.85;;;3.70;99.90;;;;;;3622529;39;20630;-75
2021/01/26 01:53:57;;;;;;;22.15;13.48;;;3.70;99.90;;;;;;3620755;39;20255;-75
2021/01/26 01:56:30;;;;;;;25.85;13.43;;;3.70;99.90;;;;;;3621078;39;20235;-76
2021/01/26 01:59:01;;;;;;;27.50;13.15;;;3.80;99.90;;;;;;3620852;39;20356;-75
2021/01/26 02:01:30;;;;;;;28.83;13.40;;;3.80;99.90;;;;;;3639980;32;20363;-74
2021/01/26 02:04:01;;;;;;;36.45;16.40;;;3.80;99.90;;;;;;3621632;32;20468;-74
2021/01/26 02:06:32;;;;;;;31.70;13.88;;;3.80;99.90;;;;;;3620507;39;20255;-74
2021/01/26 02:09:04;;;;;;;27.67;12.40;;;3.80;99.90;;;;;;3622071;39;20248;-74
2021/01/26 02:11:31;;;;;;;24.80;11.77;;;3.80;99.90;;;;;;3624928;39;20374;-75
2021/01/26 02:13:59;;;;;;;24.63;14.05;;;3.70;99.90;;;;;;3622475;39;20251;-74
2021/01/26 02:16:43;;;;;;;30.55;13.55;;;3.80;99.90;;;;;;3620578;39;20251;-74
2021/01/26 02:19:53;;;;;;;32.85;13.77;;;3.70;99.90;;;;;;3620393;39;20247;-74
2021/01/26 02:23:08;;;;;;;28.42;12.50;;;3.70;99.90;;;;;;3620126;39;20371;-74
2021/01/26 02:26:14;;;;;;;26.75;11.25;;;3.80;99.90;;;;;;3620531;39;20273;-75
2021/01/26 02:28:53;;;;;;;24.67;11.52;;;3.80;99.90;;;;;;3597323;39;20270;-75
2021/01/26 02:31:58;;;;;;;27.67;13.48;;;3.80;99.90;;;;;;3599370;39;20329;-74
2021/01/26 02:35:04;;;;;;;22.38;12.02;;;3.90;99.90;;;;;;3599451;39;20256;-74
2021/01/26 02:38:03;;;;;;;27.77;11.95;;;3.90;99.90;;;;;;3605543;39;20262;-74
2021/01/26 02:40:36;;;;;;;25.55;11.73;;;4.00;99.90;;;;;;3601254;39;20348;-74
2021/01/26 02:43:20;;;;;;;19.98;10.80;;;3.90;99.90;;;;;;3597705;39;20244;-74
2021/01/26 02:45:59;;;;;;;19.60;11.13;;;3.90;99.90;;;;;;3597247;39;20267;-74
2021/01/26 02:48:55;;;;;;;20.23;9.88;;;4.00;99.90;;;;;;3603519;39;20275;-74
2021/01/26 02:51:31;;;;;;;25.88;9.65;;;4.00;99.90;;;;;;3597565;39;20274;-74
2021/01/26 02:54:04;;;;;;;17.85;8.93;;;4.00;99.90;;;;;;3597028;39;20392;-74
2021/01/26 02:56:39;;;;;;;21.15;9.00;;;4.00;99.90;;;;;;3596504;39;20397;-74
2021/01/26 02:59:14;;;;;;;19.45;7.47;;;4.00;99.90;;;;;;3597849;39;20263;-74
2021/01/26 03:01:48;;;;;;;18.88;7.85;;;3.90;99.90;;;;;;3597556;39;20286;-74
2021/01/26 03:04:19;;;;;;;18.13;7.72;;;3.90;99.90;;;;;;3606734;39;20656;-74
2021/01/26 03:06:50;;;;;;;22.27;7.82;;;3.90;99.90;;;;;;3621687;39;20259;-74
2021/01/26 03:09:21;;;;;;;14.68;7.40;;;4.00;99.90;;;;;;3622185;39;20294;-74
2021/01/26 03:11:54;;;;;;;19.25;6.90;;;4.00;99.90;;;;;;3624365;39;20259;-74
2021/01/26 03:14:27;;;;;;;30.95;7.65;;;4.00;99.90;;;;;;3619592;39;20351;-74
2021/01/26 03:17:00;;;;;;;24.40;8.43;;;4.10;99.90;;;;;;3621962;39;20255;-74
2021/01/26 03:19:32;;;;;;;17.45;7.63;;;4.10;99.90;;;;;;3626552;39;20289;-74
2021/01/26 03:22:01;;;;;;;17.08;7.20;;;4.10;99.90;;;;;;3620658;39;20274;-74
2021/01/26 03:24:31;;;;;;;12.75;6.80;;;4.10;99.90;;;;;;3619589;39;20278;-75
2021/01/26 03:27:01;;;;;;;18.33;7.07;;;4.10;99.90;;;;;;3620445;39;20263;-74
2021/01/26 03:29:31;;;;;;;18.40;7.00;;;4.10;99.90;;;;;;3623827;39;20325;-74
2021/01/26 03:32:00;;;;;;;11.00;7.53;;;4.00;99.90;;;;;;3623111;39;20259;-75
2021/01/26 03:34:27;;;;;;;11.00;6.18;;;3.90;99.90;;;;;;3623366;39;20275;-75
2021/01/26 03:36:54;;;;;;;13.52;5.80;;;3.90;99.90;;;;;;3620018;39;20247;-75
2021/01/26 03:39:20;;;;;;;24.65;6.43;;;3.80;99.90;;;;;;3620214;39;20240;-74
2021/01/26 03:41:48;;;;;;;16.00;5.50;;;3.90;99.90;;;;;;3619987;39;20259;-74
2021/01/26 03:44:15;;;;;;;16.27;6.68;;;3.90;99.90;;;;;;3622331;39;20317;-74
2021/01/26 03:47:00;;;;;;;18.75;5.90;;;3.90;99.90;;;;;;3621254;39;20252;-74
2021/01/26 03:49:37;;;;;;;14.07;5.93;;;3.90;99.90;;;;;;3621895;39;20281;-74
2021/01/26 03:52:17;;;;;;;10.95;5.85;;;3.90;99.90;;;;;;3622975;39;20259;-74
2021/01/26 03:54:46;;;;;;;15.48;5.88;;;3.90;99.90;;;;;;3622674;39;20282;-74
2021/01/26 03:57:41;;;;;;;12.65;5.57;;;3.80;99.90;;;;;;3621861;39;20289;-74
2021/01/26 04:00:13;;;;;;;11.82;5.57;;;3.80;99.90;;;;;;3622017;39;20259;-75
2021/01/26 04:03:00;;;;;;;15.23;5.00;;;3.90;99.90;;;;;;3624126;39;20275;-75
2021/01/26 04:05:38;;;;;;;16.73;4.70;;;3.80;99.90;;;;;;3621924;39;20275;-75
2021/01/26 04:08:11;;;;;;;14.52;5.53;;;3.80;99.90;;;;;;3621503;39;20287;-75
2021/01/26 04:10:42;;;;;;;8.73;5.22;;;3.80;99.90;;;;;;3623090;39;20259;-75
2021/01/26 04:13:12;;;;;;;15.98;6.10;;;3.70;99.90;;;;;;3623511;39;20243;-75
2021/01/26 04:15:46;;;;;;;10.65;4.60;;;3.70;99.90;;;;;;3626260;39;20255;-75
2021/01/26 04:18:14;;;;;;;6.88;4.32;;;3.60;99.90;;;;;;3625786;39;20252;-74
2021/01/26 04:20:42;;;;;;;8.85;4.10;;;3.70;99.90;;;;;;3621999;39;20254;-75
2021/01/26 04:23:12;;;;;;;6.90;4.80;;;3.80;99.90;;;;;;3622242;39;20244;-75
2021/01/26 04:25:40;;;;;;;9.30;4.53;;;3.80;99.90;;;;;;3623696;39;20264;-74
2021/01/26 04:28:10;;;;;;;10.48;4.85;;;3.80;99.90;;;;;;3621286;39;20256;-75
2021/01/26 04:30:37;;;;;;;10.00;4.50;;;3.80;99.90;;;;;;3621407;39;20281;-75
2021/01/26 04:33:06;;;;;;;5.70;3.95;;;3.80;99.90;;;;;;3620963;39;20256;-74
2021/01/26 04:35:33;;;;;;;11.07;4.50;;;3.80;99.90;;;;;;3621985;39;20240;-75
2021/01/26 04:38:00;;;;;;;8.80;4.43;;;3.70;99.90;;;;;;3622718;39;20259;-74
2021/01/26 04:40:28;;;;;;;5.72;4.28;;;3.70;99.90;;;;;;3621633;39;20297;-75
2021/01/26 04:43:07;;;;;;;9.35;4.72;;;3.70;99.90;;;;;;3625021;39;20332;-74
2021/01/26 04:45:43;;;;;;;7.90;4.82;;;3.70;99.90;;;;;;3624238;39;20775;-75
2021/01/26 04:48:14;;;;;;;9.45;5.05;;;3.70;99.90;;;;;;3621630;39;20286;-75
2021/01/26 04:50:53;;;;;;;9.45;4.68;;;3.70;99.90;;;;;;3621534;39;20340;-75
2021/01/26 04:53:41;;;;;;;16.73;4.78;;;3.70;99.90;;;;;;3623574;39;20791;-75
2021/01/26 04:56:16;;;;;;;16.20;4.40;;;3.70;99.90;;;;;;3621622;39;20285;-75
2021/01/26 04:59:06;;;;;;;11.20;4.72;;;3.70;99.90;;;;;;3621134;39;20299;-75
2021/01/26 05:01:50;;;;;;;11.40;4.28;;;3.70;99.90;;;;;;3626146;39;20286;-75
2021/01/26 05:04:22;;;;;;;8.13;4.07;;;3.70;99.90;;;;;;3624545;39;20279;-75
2021/01/26 05:06:53;;;;;;;10.23;4.15;;;3.70;99.90;;;;;;3624994;39;20572;-75
2021/01/26 05:09:26;;;;;;;10.88;3.95;;;3.70;99.90;;;;;;3620886;39;20266;-74
2021/01/26 05:11:55;;;;;;;7.75;3.75;;;3.70;99.90;;;;;;3626241;39;20264;-74
2021/01/26 05:14:24;;;;;;;8.40;3.85;;;3.80;99.90;;;;;;3622146;39;20251;-74
2021/01/26 05:16:57;;;;;;;8.68;4.40;;;3.80;99.90;;;;;;3623244;39;20286;-74
2021/01/26 05:19:33;;;;;;;12.85;5.70;;;3.80;99.90;;;;;;3620920;39;20673;-74
2021/01/26 05:22:07;;;;;;;8.07;5.20;;;3.80;99.90;;;;;;3622669;39;20250;-74
2021/01/26 05:24:39;;;;;;;12.50;5.30;;;3.90;99.90;;;;;;3620883;39;20273;-74
2021/01/26 05:27:06;;;;;;;13.05;5.20;;;3.90;99.90;;;;;;3621075;39;20239;-74
2021/01/26 05:29:32;;;;;;;15.35;6.03;;;3.90;99.90;;;;;;3623514;39;20344;-74
2021/01/26 05:32:02;;;;;;;11.65;5.15;;;4.00;99.90;;;;;;3621428;39;20247;-74
2021/01/26 05:34:32;;;;;;;18.63;5.45;;;4.00;99.90;;;;;;3622235;39;20641;-74
2021/01/26 05:36:59;;;;;;;10.05;4.63;;;4.00;99.90;;;;;;3626329;39;20354;-74
2021/01/26 05:39:31;;;;;;;8.52;4.22;;;4.00;99.90;;;;;;3629512;39;20267;-74
2021/01/26 05:41:58;;;;;;;14.85;4.47;;;4.00;99.90;;;;;;3621953;39;20303;-74
2021/01/26 05:44:25;;;;;;;21.42;5.65;;;4.00;99.90;;;;;;3623740;39;21085;-74
2021/01/26 05:46:53;;;;;;;10.07;4.28;;;4.00;99.90;;;;;;3621474;39;20267;-74
2021/01/26 05:49:37;;;;;;;21.77;5.10;;;4.00;99.90;;;;;;3630017;32;20255;-74
2021/01/26 05:52:07;;;;;;;8.65;3.97;;;4.10;99.90;;;;;;3621404;39;20271;-74
2021/01/26 05:54:36;;;;;;;17.92;6.68;;;4.10;99.90;;;;;;3626133;39;21118;-74
2021/01/26 05:57:04;;;;;;;17.45;6.13;;;4.10;99.90;;;;;;3623301;39;20247;-74
2021/01/26 05:59:33;;;;;;;15.20;5.63;;;4.10;99.90;;;;;;3623700;39;20309;-74
2021/01/26 06:02:14;;;;;;;13.88;5.93;;;4.20;99.90;;;;;;3620512;39;20279;-75
2021/01/26 06:04:41;;;;;;;13.60;5.40;;;4.20;99.90;;;;;;3621336;39;20235;-74
2021/01/26 06:07:19;;;;;;;14.32;6.70;;;4.20;99.90;;;;;;3620788;39;20290;-74
2021/01/26 06:09:46;;;;;;;13.25;5.82;;;4.30;99.90;;;;;;3620313;39;20278;-74
2021/01/26 06:12:18;;;;;;;14.18;4.97;;;4.30;99.90;;;;;;3620668;39;20764;-74
2021/01/26 06:14:47;;;;;;;14.00;6.15;;;4.30;99.90;;;;;;3621466;39;20755;-75
2021/01/26 06:17:21;;;;;;;11.48;5.05;;;4.30;99.90;;;;;;3622934;39;20259;-74
2021/01/26 06:20:04;;;;;;;11.80;4.63;;;4.30;99.90;;;;;;3620802;39;20255;-75
2021/01/26 06:22:32;;;;;;;10.50;5.05;;;4.30;99.90;;;;;;3620670;39;20277;-75
2021/01/26 06:25:00;;;;;;;8.27;4.00;;;4.30;99.90;;;;;;3620700;39;20261;-74
2021/01/26 06:27:42;;;;;;;10.10;5.00;;;4.30;99.90;;;;;;3622941;39;20266;-75
2021/01/26 06:30:18;;;;;;;5.65;4.18;;;4.30;99.90;;;;;;3626824;39;20243;-75
2021/01/26 06:33:24;;;;;;;7.28;4.50;;;4.30;99.90;;;;;;3626137;39;20262;-75
2021/01/26 06:36:01;;;;;;;10.25;4.20;;;4.30;99.90;;;;;;3620904;39;20255;-75
2021/01/26 06:38:52;;;;;;;10.07;4.90;;;4.30;99.90;;;;;;3620364;39;20250;-75
2021/01/26 06:41:38;;;;;;;15.07;4.43;;;4.30;99.90;;;;;;3620591;39;20274;-75
2021/01/26 06:44:22;;;;;;;28.05;5.18;;;4.40;99.90;;;;;;3620552;39;20347;-75
2021/01/26 06:47:04;;;;;;;14.55;4.80;;;4.50;99.90;;;;;;3625819;39;20874;-75
2021/01/26 06:49:42;;;;;;;15.48;4.78;;;4.40;99.90;;;;;;3621030;39;20262;-75
2021/01/26 06:52:25;;;;;;;5.35;3.60;;;4.40;99.90;;;;;;3623074;39;20262;-75
2021/01/26 06:55:14;;;;;;;11.80;3.95;;;4.50;99.90;;;;;;3620444;39;20247;-75
2021/01/26 06:58:07;;;;;;;12.43;4.90;;;4.50;99.90;;;;;;3620706;39;20287;-75
2021/01/26 07:00:49;;;;;;;7.38;3.72;;;4.50;99.90;;;;;;3620340;39;20348;-75
2021/01/26 07:04:01;;;;;;;6.70;3.80;;;4.50;99.90;;;;;;3620417;39;20247;-75
2021/01/26 07:07:01;;;;;;;6.15;3.30;;;4.50;99.90;;;;;;3623188;39;20313;-75
2021/01/26 07:09:50;;;;;;;8.02;4.28;;;4.50;99.90;;;;;;3632370;31;20251;-75
2021/01/26 07:12:42;;;;;;;10.32;4.18;;;4.30;99.90;;;;;;3621603;39;20247;-74
2021/01/26 07:15:27;;;;;;;9.65;5.13;;;4.30;99.90;;;;;;3619490;39;20259;-74
2021/01/26 07:18:16;;;;;;;7.72;4.78;;;4.30;99.90;;;;;;3620933;39;20282;-74
2021/01/26 07:20:52;;;;;;;9.45;5.00;;;4.20;99.90;;;;;;3623703;39;20110;-74
2021/01/26 07:23:44;;;;;;;9.93;5.45;;;4.20;99.90;;;;;;3624715;39;20270;-74
2021/01/26 07:26:26;;;;;;;9.52;4.97;;;4.20;99.90;;;;;;3628340;39;20818;-74
2021/01/26 07:29:11;;;;;;;11.27;5.45;;;4.30;99.90;;;;;;3622461;39;20290;-74
2021/01/26 07:31:43;;;;;;;9.00;5.10;;;4.30;99.90;;;;;;3625012;39;20764;-74
2021/01/26 07:34:18;;;;;;;14.73;6.60;;;4.30;99.90;;;;;;3621880;39;20281;-76
2021/01/26 07:36:51;;;;;;;9.63;5.60;;;4.30;99.90;;;;;;3622082;39;20271;-74
2021/01/26 07:39:23;;;;;;;11.80;5.30;;;4.40;99.90;;;;;;3622113;39;20341;-74
2021/01/26 07:41:57;;;;;;;12.15;5.75;;;4.40;99.90;;;;;;3622032;39;20247;-74
2021/01/26 07:44:29;;;;;;;9.90;5.13;;;4.30;99.90;;;;;;3621580;39;20263;-74
2021/01/26 07:47:00;;;;;;;14.40;6.38;;;4.30;99.90;;;;;;3622067;39;20273;-74
2021/01/26 07:49:36;;;;;;;16.15;5.28;;;4.40;99.90;;;;;;3625696;39;20267;-74
2021/01/26 07:52:05;;;;;;;15.65;5.60;;;4.30;99.90;;;;;;3622092;39;20242;-74
2021/01/26 07:54:39;;;;;;;16.33;5.72;;;4.40;99.90;;;;;;3621957;39;20356;-74
2021/01/26 07:57:08;;;;;;;13.27;5.00;;;4.30;99.90;;;;;;3628464;39;20351;-75
2021/01/26 07:59:38;;;;;;;15.05;6.05;;;4.30;99.90;;;;;;3622413;39;20375;-75
2021/01/26 08:02:12;;;;;;;9.68;5.63;;;4.30;99.90;;;;;;3623438;39;20262;-75
2021/01/26 08:04:40;;;;;;;14.30;7.70;;;4.30;99.90;;;;;;3625462;39;20239;-75
2021/01/26 08:07:08;;;;;;;11.38;6.25;;;4.30;99.90;;;;;;3626597;39;20267;-74
2021/01/26 08:09:39;;;;;;;13.82;6.05;;;4.30;99.90;;;;;;3621756;39;20260;-75
2021/01/26 08:12:09;;;;;;;14.95;5.65;;;4.30;99.90;;;;;;3627026;39;20282;-74
2021/01/26 08:14:40;;;;;;;7.40;4.68;;;4.30;99.90;;;;;;3622288;39;20313;-75
2021/01/26 08:17:11;;;;;;;7.95;4.70;;;4.30;99.90;;;;;;3623268;39;20271;-74
2021/01/26 08:19:43;;;;;;;12.23;6.65;;;4.30;99.90;;;;;;3621796;39;20267;-75
2021/01/26 08:22:30;;;;;;;10.55;4.85;;;4.30;99.90;;;;;;3622013;39;20256;-75
2021/01/26 08:25:03;;;;;;;15.15;5.35;;;4.30;99.90;;;;;;3621009;39;20282;-74
2021/01/26 08:28:02;;;;;;;6.45;4.97;;;4.40;99.90;;;;;;3623582;39;20239;-74
2021/01/26 08:30:59;;;;;;;9.75;5.45;;;4.40;99.90;;;;;;3620989;39;20251;-74
2021/01/26 08:33:27;;;;;;;10.63;5.43;;;4.40;99.90;;;;;;3623378;39;20270;-74
2021/01/26 08:36:29;;;;;;;11.63;6.60;;;4.30;99.90;;;;;;3621273;39;20240;-74
2021/01/26 08:38:59;;;;;;;10.40;5.90;;;4.40;99.90;;;;;;3615870;39;20255;-74
2021/01/26 08:41:46;;;;;;;19.42;6.72;;;4.40;99.90;;;;;;3621443;39;20324;-74
2021/01/26 08:44:49;;;;;;;13.57;5.53;;;4.40;99.90;;;;;;3622099;39;20770;-75
2021/01/26 08:47:51;;;;;;;13.18;5.80;;;4.50;99.90;;;;;;3621477;39;20339;-74
2021/01/26 08:50:25;;;;;;;11.98;6.07;;;4.60;99.90;;;;;;3621828;39;20282;-74
2021/01/26 08:52:54;;;;;;;10.55;5.35;;;4.60;99.90;;;;;;3622301;39;20277;-74
2021/01/26 08:55:33;;;;;;;11.43;5.15;;;4.50;99.90;;;;;;3621534;39;20351;-74
2021/01/26 08:58:00;;;;;;;11.35;5.03;;;4.40;99.90;;;;;;3624729;39;20783;-75
2021/01/26 09:00:38;;;;;;;11.23;4.95;;;4.40;99.90;;;;;;3621363;39;20785;-75
2021/01/26 09:03:27;;;;;;;15.25;6.00;;;4.50;99.90;;;;;;3621747;39;20810;-74
2021/01/26 09:06:00;;;;;;;10.65;5.50;;;4.50;99.90;;;;;;3621475;39;20255;-74
2021/01/26 09:08:52;;;;;;;14.35;5.15;;;4.50;99.90;;;;;;3623509;39;20274;-75
2021/01/26 09:11:41;;;;;;;18.83;6.38;;;4.60;99.90;;;;;;3622827;39;20647;-75
2021/01/26 09:14:19;;;;;;;13.18;5.47;;;4.60;99.90;;;;;;3622547;39;20271;-75
2021/01/26 09:16:47;;;;;;;13.18;5.70;;;4.60;99.90;;;;;;3627420;39;20265;-74
2021/01/26 09:19:23;;;;;;;9.23;6.22;;;4.70;99.90;;;;;;3621176;39;20273;-74
2021/01/26 09:21:50;;;;;;;13.27;5.72;;;4.70;99.90;;;;;;3621634;39;20243;-75
2021/01/26 09:24:21;;;;;;;9.57;5.75;;;4.80;99.90;;;;;;3622662;32;20515;-75
2021/01/26 09:26:49;;;;;;;10.98;6.05;;;4.80;99.90;;;;;;3623479;39;20256;-74
2021/01/26 09:29:23;;;;;;;10.63;5.50;;;4.80;99.90;;;;;;3624250;39;20344;-75
2021/01/26 09:31:50;;;;;;;12.30;6.40;;;4.80;99.90;;;;;;3623086;39;20277;-74
2021/01/26 09:34:24;;;;;;;9.63;6.20;;;4.90;99.90;;;;;;3623651;39;20386;-73
2021/01/26 09:36:50;;;;;;;13.98;6.65;;;4.90;99.90;;;;;;3625134;39;20290;-75
2021/01/26 09:39:19;;;;;;;6.82;5.28;;;4.90;99.90;;;;;;3621125;39;20307;-75
2021/01/26 09:41:45;;;;;;;10.48;6.53;;;4.90;99.90;;;;;;3620659;39;20263;-75
2021/01/26 09:44:18;;;;;;;14.48;6.55;;;5.00;99.90;;;;;;3621724;31;20252;-75
2021/01/26 09:46:49;;;;;;;15.02;8.63;;;5.00;99.90;;;;;;3621275;39;20243;-75
2021/01/26 09:49:21;;;;;;;13.63;6.97;;;5.00;99.90;;;;;;3625353;39;20251;-75
2021/01/26 09:51:52;;;;;;;11.95;6.97;;;5.00;99.90;;;;;;3621768;39;20260;-75
2021/01/26 09:54:24;;;;;;;9.82;6.45;;;4.90;99.90;;;;;;3622546;39;20248;-76
2021/01/26 09:56:52;;;;;;;12.18;7.50;;;4.90;99.90;;;;;;3623251;39;20259;-76
2021/01/26 09:59:19;;;;;;;18.73;7.15;;;5.00;99.90;;;;;;3622971;39;20336;-76
2021/01/26 10:01:47;;;;;;;15.18;7.15;;;5.00;99.90;;;;;;3631956;39;20282;-76
2021/01/26 10:04:16;;;;;;;14.52;7.32;;;5.00;99.90;;;;;;3625176;39;20344;-76
2021/01/26 10:06:44;;;;;;;18.90;7.78;;;5.10;99.90;;;;;;3623781;39;20387;-76
2021/01/26 10:09:22;;;;;;;10.07;6.95;;;5.10;99.90;;;;;;3620584;39;20256;-76
2021/01/26 10:11:49;;;;;;;16.40;7.93;;;5.10;99.90;;;;;;3619968;39;20272;-76
2021/01/26 10:14:18;;;;;;;11.60;6.82;;;5.20;99.90;;;;;;3622730;39;20263;-76
2021/01/26 10:16:47;;;;;;;14.07;6.38;;;5.30;99.90;;;;;;3620879;39;20352;-76
2021/01/26 10:19:16;;;;;;;10.85;7.20;;;5.30;99.90;;;;;;3622723;39;20251;-76
2021/01/26 10:21:43;;;;;;;13.70;6.50;;;5.40;99.90;;;;;;3621760;39;20231;-75
2021/01/26 10:24:22;;;;;;;18.15;7.53;;;5.50;99.90;;;;;;3620298;39;20255;-74
2021/01/26 10:26:49;;;;;;;12.48;7.32;;;5.50;99.90;;;;;;3624934;39;20301;-75
2021/01/26 10:29:22;;;;;;;13.63;6.13;;;5.60;99.90;;;;;;3620800;39;20243;-75
2021/01/26 10:31:51;;;;;;;9.45;5.70;;;5.70;99.90;;;;;;3620577;39;20306;-75
2021/01/26 10:34:33;;;;;;;11.10;7.00;;;5.80;99.90;;;;;;3620056;39;20275;-75
2021/01/26 10:37:13;;;;;;;11.88;6.47;;;5.80;99.90;;;;;;3620325;39;20274;-75
2021/01/26 10:39:41;;;;;;;13.10;6.97;;;5.80;99.90;;;;;;3620850;39;20243;-75
2021/01/26 10:42:16;;;;;;;15.57;6.95;;;5.80;99.90;;;;;;3620464;39;20612;-75
2021/01/26 10:44:45;;;;;;;11.30;6.22;;;5.90;99.90;;;;;;3619934;39;20321;-75
2021/01/26 10:47:18;;;;;;;17.67;7.22;;;5.90;99.90;;;;;;3620543;39;20267;-75
2021/01/26 10:49:53;;;;;;;13.23;6.65;;;6.10;99.90;;;;;;3620078;39;20274;-75
2021/01/26 10:52:41;;;;;;;11.35;6.32;;;6.20;99.90;;;;;;3619840;39;20243;-75
2021/01/26 10:55:10;;;;;;;11.13;6.43;;;6.20;99.90;;;;;;3620357;39;20267;-75
2021/01/26 10:57:36;;;;;;;10.18;7.22;;;6.20;99.90;;;;;;3623526;39;20345;-76
2021/01/26 11:00:06;;;;;;;17.90;9.32;;;6.30;99.90;;;;;;3621726;39;20251;-75
2021/01/26 11:13:40;;;;;;;13.73;5.72;;;6.10;99.90;;;;;;3636414;32;20227;-75
2021/01/26 11:16:06;;;;;;;9.32;6.07;;;6.00;99.90;;;;;;3642476;39;20282;-72
2021/01/26 11:18:32;;;;;;;14.65;6.35;;;5.90;99.90;;;;;;3638764;39;20251;-77
2021/01/26 11:21:01;;;;;;;12.77;8.13;;;6.00;99.90;;;;;;3647182;39;20266;-77
2021/01/26 11:23:28;;;;;;;18.88;8.35;;;6.00;99.90;;;;;;3641628;39;20250;-76
2021/01/26 11:25:55;;;;;;;14.68;6.78;;;6.20;99.90;;;;;;3638806;39;20259;-77
2021/01/26 11:28:22;;;;;;;15.38;7.18;;;6.20;99.90;;;;;;3655994;31;20262;-77
2021/01/26 11:30:48;;;;;;;12.48;6.10;;;6.30;99.90;;;;;;3641803;39;20285;-77
2021/01/26 11:33:16;;;;;;;9.77;5.53;;;6.30;99.90;;;;;;3642125;39;20279;-78
2021/01/26 11:35:42;;;;;;;11.48;6.95;;;6.30;99.90;;;;;;3635078;39;20309;-78
2021/01/26 11:38:09;;;;;;;9.60;6.00;;;6.40;99.90;;;;;;3638974;39;20339;-78
2021/01/26 11:40:36;;;;;;;11.18;6.68;;;6.40;99.90;;;;;;3664123;31;20254;-78
2021/01/26 11:43:02;;;;;;;14.80;6.20;;;6.50;99.90;;;;;;3638956;39;20438;-77
2021/01/26 11:45:32;;;;;;;18.08;8.32;;;6.60;99.90;;;;;;3638155;39;20274;-77
2021/01/26 11:47:59;;;;;;;10.48;6.60;;;6.70;99.90;;;;;;3650280;31;20285;-77
2021/01/26 11:50:26;;;;;;;9.82;5.13;;;6.80;99.90;;;;;;3636751;39;20242;-77
2021/01/26 11:52:53;;;;;;;13.98;5.88;;;6.70;99.90;;;;;;3637440;39;20353;-76
2021/01/26 11:55:24;;;;;;;10.93;6.40;;;6.70;99.90;;;;;;3637672;39;20282;-76
2021/01/26 11:57:51;;;;;;;14.68;6.82;;;6.70;99.90;;;;;;3636070;39;20259;-77
2021/01/26 12:00:21;;;;;;;14.23;10.60;;;6.80;99.90;;;;;;3637547;39;20286;-77
2021/01/26 12:02:48;;;;;;;9.00;5.75;;;6.80;99.90;;;;;;3637829;39;20793;-77
2021/01/26 12:05:15;;;;;;;10.20;6.15;;;6.70;99.90;;;;;;3637883;39;20279;-76
2021/01/26 12:07:42;;;;;;;11.60;5.53;;;6.60;99.90;;;;;;3637822;39;20251;-77
2021/01/26 12:10:11;;;;;;;12.02;6.75;;;6.60;99.90;;;;;;3636738;39;20259;-77
2021/01/26 12:12:39;;;;;;;13.07;6.90;;;6.70;99.90;;;;;;3636178;39;20283;-77
2021/01/26 12:15:07;;;;;;;13.68;7.70;;;6.60;99.90;;;;;;3634146;39;20240;-77
2021/01/26 12:17:34;;;;;;;11.57;5.63;;;6.60;99.90;;;;;;3629046;39;20274;-78
2021/01/26 12:20:01;;;;;;;9.27;6.28;;;6.50;99.90;;;;;;3629241;39;20274;-77
2021/01/26 12:22:28;;;;;;;8.98;6.50;;;6.60;99.90;;;;;;3631131;39;20289;-77
2021/01/26 12:24:54;;;;;;;6.03;5.35;;;6.60;99.90;;;;;;3630679;39;20274;-77
2021/01/26 12:27:21;;;;;;;13.13;5.90;;;6.70;99.90;;;;;;3631154;39;20255;-77
2021/01/26 12:29:48;;;;;;;10.93;6.22;;;6.70;99.90;;;;;;3631238;39;20263;-77
2021/01/26 12:32:14;;;;;;;11.68;6.10;;;6.70;99.90;;;;;;3629715;39;20279;-77
2021/01/26 12:34:41;;;;;;;13.50;6.75;;;6.70;99.90;;;;;;3628632;39;20247;-77
2021/01/26 12:37:07;;;;;;;10.43;6.32;;;6.60;99.90;;;;;;3629429;39;20263;-77
2021/01/26 12:39:34;;;;;;;10.52;5.97;;;6.50;99.90;;;;;;3631795;31;20390;-77
2021/01/26 12:42:01;;;;;;;10.77;6.53;;;6.50;99.90;;;;;;3628289;39;20286;-77
2021/01/26 12:44:27;;;;;;;8.82;6.38;;;6.50;99.90;;;;;;3631726;31;20273;-77
2021/01/26 12:46:54;;;;;;;17.08;6.22;;;6.50;99.90;;;;;;3627995;39;20341;-76
2021/01/26 12:49:21;;;;;;;12.60;7.22;;;6.50;99.90;;;;;;3627641;39;20275;-77
2021/01/26 12:51:47;;;;;;;8.85;6.80;;;6.60;99.90;;;;;;3628007;39;20255;-76
2021/01/26 12:54:14;;;;;;;12.88;7.03;;;6.60;99.90;;;;;;3628949;39;20383;-76
2021/01/26 12:56:40;;;;;;;20.30;6.45;;;6.60;99.90;;;;;;3630679;39;20594;-76
2021/01/26 12:59:07;;;;;;;10.82;6.65;;;6.70;99.90;;;;;;3631003;39;20267;-76
2021/01/26 13:01:33;;;;;;;14.35;6.63;;;6.80;99.90;;;;;;3630806;39;20248;-76
2021/01/26 13:04:00;;;;;;;10.57;6.18;;;6.90;99.90;;;;;;3630261;39;20359;-76
2021/01/26 13:06:27;;;;;;;12.32;6.50;;;6.90;99.90;;;;;;3630572;39;20360;-76
2021/01/26 13:08:54;;;;;;;8.75;6.30;;;7.00;99.90;;;;;;3627359;39;20279;-77
2021/01/26 13:11:20;;;;;;;11.68;7.25;;;7.10;99.90;;;;;;3626972;39;20279;-76
2021/01/26 13:13:47;;;;;;;12.20;6.55;;;7.20;99.90;;;;;;3629430;39;20267;-77
2021/01/26 13:16:13;;;;;;;11.77;5.00;;;7.30;99.90;;;;;;3629259;39;20239;-76
2021/01/26 13:18:40;;;;;;;6.90;4.70;;;7.40;99.90;;;;;;3629945;39;20275;-76
2021/01/26 13:21:07;;;;;;;12.30;4.95;;;7.50;99.90;;;;;;3630128;39;20740;-77
2021/01/26 13:23:35;;;;;;;9.95;6.45;;;7.40;99.90;;;;;;3631202;39;20271;-76
2021/01/26 13:26:02;;;;;;;6.50;3.90;;;7.50;99.90;;;;;;3638755;31;20255;-77